Time;durP1;ratioP1;P1;durP2;ratioP2;P2;SDS_P1;SDS_P2;PMS_P1;PMS_P2;Temp;Humidity;BMP_temperature;BMP_pressure;BME280_temperature;BME280_humidity;BME280_pressure;Samples;Min_cycle;Max_cycle;Signal;HPM_P1;HPM_P2
2023/03/13 00:01:13;;;;;;;0.10;0.10;;;;;;;14.24;74.55;97668.19;7361414;19;20019;-61
2023/03/13 00:03:39;;;;;;;0.10;0.10;;;;;;;14.22;74.34;97669.25;7355487;19;20018;-61
2023/03/13 00:06:04;;;;;;;0.00;0.00;;;;;;;13.94;74.60;97627.03;7360835;19;20022;-61
2023/03/13 00:08:30;;;;;;;0.10;0.10;;;;;;;14.23;74.36;97656.00;7355424;19;20010;-61
2023/03/13 00:10:56;;;;;;;0.10;0.10;;;;;;;14.24;74.61;97657.69;7357627;19;20030;-61
2023/03/13 00:13:22;;;;;;;0.00;0.00;;;;;;;14.22;74.43;97664.00;7357103;19;20014;-61
2023/03/13 00:15:47;;;;;;;0.10;0.10;;;;;;;14.22;74.22;97659.59;7353650;19;20010;-61
2023/03/13 00:18:13;;;;;;;0.10;0.10;;;;;;;14.21;73.95;97634.31;7349754;19;20022;-60
2023/03/13 00:20:38;;;;;;;0.10;0.10;;;;;;;14.11;74.36;97567.03;7356865;19;20010;-61
2023/03/13 00:23:04;;;;;;;0.10;0.10;;;;;;;14.18;74.24;97595.22;7345342;19;20006;-61
2023/03/13 00:25:30;;;;;;;0.10;0.10;;;;;;;14.19;74.07;97591.66;7349619;19;20010;-60
2023/03/13 00:27:55;;;;;;;0.10;0.10;;;;;;;14.21;73.68;97578.38;7353990;19;20095;-59
2023/03/13 00:30:20;;;;;;;0.10;0.10;;;;;;;14.16;74.16;97589.28;7360207;19;20014;-60
2023/03/13 00:32:47;;;;;;;0.00;0.00;;;;;;;14.14;73.95;97578.09;7354583;19;20030;-59
2023/03/13 00:35:13;;;;;;;0.10;0.10;;;;;;;14.07;74.14;97565.63;7360135;19;20039;-60
2023/03/13 00:37:39;;;;;;;0.05;0.05;;;;;;;13.99;74.92;97532.19;7356975;19;20014;-60
2023/03/13 00:40:05;;;;;;;0.08;0.08;;;;;;;13.96;75.05;97551.66;7352590;19;20764;-60
2023/03/13 00:42:31;;;;;;;0.10;0.10;;;;;;;13.77;75.10;97527.97;7351719;19;20011;-59
2023/03/13 00:44:56;;;;;;;0.00;0.00;;;;;;;13.46;75.00;97472.94;7356699;19;20006;-60
2023/03/13 00:47:22;;;;;;;0.05;0.05;;;;;;;13.83;75.36;97552.84;7345686;19;20482;-59
2023/03/13 00:49:47;;;;;;;0.10;0.10;;;;;;;13.68;75.55;97529.59;7354545;19;20025;-60
2023/03/13 00:52:13;;;;;;;0.00;0.00;;;;;;;13.75;75.72;97540.41;7352210;19;20015;-60
2023/03/13 00:54:38;;;;;;;0.08;0.08;;;;;;;13.72;76.00;97535.41;7359068;19;20014;-60
2023/03/13 00:57:04;;;;;;;0.10;0.10;;;;;;;13.71;75.86;97550.31;7351560;19;20018;-60
2023/03/13 00:59:29;;;;;;;0.10;0.10;;;;;;;13.67;76.46;97527.94;7358802;19;20018;-60
2023/03/13 01:01:54;;;;;;;0.10;0.10;;;;;;;13.64;76.18;97522.97;7353712;19;20031;-60
2023/03/13 01:04:20;;;;;;;0.03;0.03;;;;;;;13.34;76.79;97462.69;7350140;19;20036;-59
2023/03/13 01:06:45;;;;;;;0.10;0.10;;;;;;;13.59;76.76;97506.78;7354952;19;21533;-59
2023/03/13 01:09:13;;;;;;;0.08;0.08;;;;;;;13.63;76.56;97497.69;7355073;19;20067;-60
2023/03/13 01:11:40;;;;;;;0.10;0.10;;;;;;;13.59;76.88;97482.38;7353184;19;20037;-60
2023/03/13 01:14:10;;;;;;;0.10;0.10;;;;;;;13.32;76.86;97448.88;7355937;19;20600;-60
2023/03/13 01:16:36;;;;;;;0.10;0.10;;;;;;;13.56;77.17;97470.34;7356552;19;20101;-61
2023/03/13 01:19:05;;;;;;;0.15;0.15;;;;;;;13.55;76.89;97466.06;7357598;19;21196;-61
2023/03/13 01:21:30;;;;;;;0.10;0.10;;;;;;;13.55;77.29;97465.25;7356228;19;20006;-61
2023/03/13 01:23:56;;;;;;;0.05;0.05;;;;;;;13.55;77.38;97468.69;7346877;19;20902;-61
2023/03/13 01:26:22;;;;;;;0.10;0.10;;;;;;;13.53;77.28;97447.00;7355161;19;20019;-61
2023/03/13 01:28:48;;;;;;;0.05;0.05;;;;;;;13.56;77.26;97440.69;7355214;19;20051;-61
2023/03/13 01:31:17;;;;;;;0.10;0.10;;;;;;;13.45;77.22;97449.47;7352917;19;20070;-61
2023/03/13 01:33:43;;;;;;;0.00;0.00;;;;;;;13.58;77.20;97442.19;7354334;19;20022;-61
2023/03/13 01:36:09;;;;;;;0.00;0.00;;;;;;;13.57;77.51;97432.69;7351100;19;20029;-61
2023/03/13 01:38:36;;;;;;;0.00;0.00;;;;;;;13.56;77.55;97433.66;7352930;19;20764;-62
2023/03/13 01:41:02;;;;;;;0.10;0.10;;;;;;;13.55;77.48;97450.34;7352191;19;20006;-62
2023/03/13 01:43:29;;;;;;;0.10;0.10;;;;;;;13.55;77.80;97445.09;7355752;19;20185;-62
2023/03/13 01:46:12;;;;;;;0.10;0.10;;;;;;;13.57;77.64;97447.56;7351415;19;20029;-62
2023/03/13 01:49:02;;;;;;;0.10;0.10;;;;;;;13.57;77.37;97448.41;7354050;19;20062;-61
2023/03/13 01:51:36;;;;;;;0.10;0.10;;;;;;;13.57;77.61;97439.72;7355783;19;20104;-61
2023/03/13 01:54:17;;;;;;;0.10;0.10;;;;;;;13.59;77.86;97440.44;7354576;19;20035;-61
2023/03/13 01:56:49;;;;;;;0.00;0.00;;;;;;;13.58;77.58;97434.31;7354189;19;20029;-61
2023/03/13 01:59:20;;;;;;;0.10;0.10;;;;;;;13.62;77.77;97425.25;7354911;19;20440;-62
2023/03/13 02:01:46;;;;;;;0.10;0.10;;;;;;;13.64;77.41;97428.56;7354016;19;20014;-61
2023/03/13 02:04:15;;;;;;;0.10;0.10;;;;;;;13.64;77.94;97407.59;7352325;19;20652;-61
2023/03/13 02:06:44;;;;;;;0.10;0.10;;;;;;;13.67;77.34;97411.72;7352074;19;20013;-61
2023/03/13 02:09:17;;;;;;;0.10;0.10;;;;;;;13.69;77.48;97405.41;7353955;19;20010;-61
2023/03/13 02:11:49;;;;;;;0.10;0.10;;;;;;;13.71;77.72;97400.84;7353979;19;20343;-61
2023/03/13 02:14:17;;;;;;;0.10;0.10;;;;;;;13.70;77.74;97401.81;7353777;19;20022;-61
2023/03/13 02:16:47;;;;;;;0.00;0.00;;;;;;;13.73;77.22;97396.28;7353353;19;20010;-61
2023/03/13 02:19:23;;;;;;;0.10;0.10;;;;;;;13.68;77.13;97372.25;7329645;19;20035;-61
2023/03/13 02:21:58;;;;;;;0.10;0.10;;;;;;;13.77;76.97;97368.81;7353961;19;20007;-61
2023/03/13 02:24:36;;;;;;;0.10;0.10;;;;;;;13.82;77.45;97370.22;7349298;19;20014;-62
2023/03/13 02:27:02;;;;;;;0.10;0.10;;;;;;;13.78;76.84;97369.66;7350474;19;20018;-62
2023/03/13 02:29:28;;;;;;;0.10;0.10;;;;;;;13.81;76.99;97358.06;7352056;19;20023;-61
2023/03/13 02:31:54;;;;;;;0.10;0.10;;;;;;;13.83;76.89;97384.97;7353697;19;20006;-61
2023/03/13 02:34:23;;;;;;;0.10;0.10;;;;;;;13.88;77.15;97377.53;7352839;19;20027;-61
2023/03/13 02:36:49;;;;;;;0.10;0.10;;;;;;;13.87;77.10;97370.63;7351368;19;20377;-61
2023/03/13 02:39:17;;;;;;;0.10;0.10;;;;;;;13.88;77.18;97348.69;7354305;19;22743;-61
2023/03/13 02:41:45;;;;;;;0.10;0.10;;;;;;;13.92;77.15;97352.69;7352693;19;20015;-61
2023/03/13 02:44:11;;;;;;;0.10;0.10;;;;;;;13.89;76.96;97343.31;7351252;19;20018;-61
2023/03/13 02:46:49;;;;;;;0.10;0.10;;;;;;;13.96;76.73;97339.16;7357378;19;20026;-61
2023/03/13 02:49:28;;;;;;;0.03;0.03;;;;;;;13.96;76.51;97343.59;7346276;19;20463;-61
2023/03/13 02:51:57;;;;;;;0.00;0.00;;;;;;;13.85;76.42;97310.44;7348880;19;20108;-61
2023/03/13 02:54:32;;;;;;;0.10;0.10;;;;;;;13.96;76.26;97312.09;7353068;19;20067;-61
2023/03/13 02:57:01;;;;;;;0.00;0.00;;;;;;;13.94;76.54;97314.88;7350935;19;20018;-61
2023/03/13 02:59:26;;;;;;;0.10;0.10;;;;;;;13.92;76.75;97300.22;7338297;19;20044;-60
2023/03/13 03:01:52;;;;;;;0.10;0.10;;;;;;;13.92;76.21;97294.97;7344262;19;20430;-61
2023/03/13 03:04:24;;;;;;;0.00;0.00;;;;;;;13.95;76.07;97290.28;7344502;19;20015;-61
2023/03/13 03:06:50;;;;;;;0.10;0.10;;;;;;;13.91;76.28;97299.41;7347084;19;20021;-61
2023/03/13 03:09:17;;;;;;;0.10;0.10;;;;;;;13.80;76.20;97296.09;7350138;19;20700;-61
2023/03/13 03:11:42;;;;;;;0.03;0.03;;;;;;;13.83;76.10;97269.59;7350377;19;20014;-61
2023/03/13 03:14:09;;;;;;;0.05;0.05;;;;;;;13.86;75.73;97262.28;7356023;19;20043;-61
2023/03/13 03:16:35;;;;;;;0.00;0.00;;;;;;;13.78;76.25;97262.13;7356561;19;20086;-61
2023/03/13 03:19:00;;;;;;;0.10;0.10;;;;;;;13.80;76.04;97254.16;7353032;19;20419;-61
2023/03/13 03:21:26;;;;;;;0.10;0.10;;;;;;;13.80;75.65;97254.16;7353794;19;20031;-61
2023/03/13 03:23:51;;;;;;;0.10;0.10;;;;;;;13.77;76.10;97260.47;7357183;19;20073;-61
2023/03/13 03:26:17;;;;;;;0.10;0.10;;;;;;;13.76;75.85;97256.22;7354921;19;20010;-61
2023/03/13 03:28:42;;;;;;;0.00;0.00;;;;;;;13.75;75.84;97265.88;7353539;19;20474;-61
2023/03/13 03:31:10;;;;;;;0.10;0.10;;;;;;;13.75;75.63;97262.44;7352086;19;20485;-61
2023/03/13 03:33:37;;;;;;;0.20;0.20;;;;;;;13.71;75.62;97246.13;7355537;19;20058;-61
2023/03/13 03:36:06;;;;;;;0.10;0.10;;;;;;;13.69;76.26;97240.22;7354110;19;20013;-61
2023/03/13 03:38:31;;;;;;;0.10;0.10;;;;;;;13.69;75.91;97236.75;7350722;19;20369;-61
2023/03/13 03:40:57;;;;;;;0.10;0.10;;;;;;;13.61;75.81;97221.72;7352310;19;20014;-62
2023/03/13 03:43:23;;;;;;;0.10;0.10;;;;;;;13.67;75.86;97228.19;7348121;19;20010;-61
2023/03/13 03:45:48;;;;;;;0.03;0.03;;;;;;;13.68;75.77;97230.66;7357452;19;20173;-62
2023/03/13 03:48:13;;;;;;;0.10;0.10;;;;;;;13.68;76.28;97225.41;7348961;19;20772;-61
2023/03/13 03:50:39;;;;;;;0.10;0.10;;;;;;;13.69;75.71;97223.66;7356913;19;20026;-61
2023/03/13 03:53:04;;;;;;;0.10;0.10;;;;;;;13.66;76.40;97227.38;7350916;19;20006;-61
2023/03/13 03:55:30;;;;;;;0.10;0.10;;;;;;;13.65;75.84;97215.22;7357468;19;20007;-61
2023/03/13 03:57:55;;;;;;;0.10;0.10;;;;;;;13.67;75.53;97218.53;7355075;19;20272;-61
2023/03/13 04:00:20;;;;;;;0.10;0.10;;;;;;;13.69;75.80;97211.38;7354331;19;20014;-61
2023/03/13 04:02:46;;;;;;;0.10;0.10;;;;;;;13.63;75.42;97217.16;7355439;19;20031;-61
2023/03/13 04:05:12;;;;;;;0.10;0.10;;;;;;;13.66;75.33;97216.06;7333568;19;20018;-60
2023/03/13 04:07:37;;;;;;;0.10;0.10;;;;;;;13.63;75.20;97211.91;7352336;19;20026;-59
2023/03/13 04:10:03;;;;;;;0.10;0.10;;;;;;;13.61;75.09;97198.13;7351458;19;20030;-61
2023/03/13 04:12:29;;;;;;;0.10;0.10;;;;;;;13.40;74.30;97163.38;7354053;19;20034;-59
2023/03/13 04:14:54;;;;;;;0.00;0.00;;;;;;;13.47;74.14;97211.63;7354647;19;20021;-60
2023/03/13 04:17:19;;;;;;;0.05;0.05;;;;;;;13.36;74.36;97238.00;7348434;19;20030;-59
2023/03/13 04:19:45;;;;;;;0.00;0.00;;;;;;;13.28;74.40;97233.44;7350752;19;20019;-60
2023/03/13 04:22:10;;;;;;;0.00;0.00;;;;;;;13.15;74.01;97215.31;7351609;19;20023;-60
2023/03/13 04:24:36;;;;;;;0.00;0.00;;;;;;;13.02;74.33;97206.88;7355295;19;20014;-60
2023/03/13 04:27:02;;;;;;;0.10;0.10;;;;;;;12.93;74.76;97228.66;7353638;19;20014;-61
2023/03/13 04:29:28;;;;;;;0.10;0.10;;;;;;;12.81;74.88;97241.03;7345629;19;20022;-60
2023/03/13 04:31:54;;;;;;;0.00;0.00;;;;;;;12.69;74.55;97201.03;7333639;19;20657;-61
2023/03/13 04:34:20;;;;;;;0.00;0.00;;;;;;;12.59;75.04;97223.75;7347772;19;20011;-60
2023/03/13 04:36:45;;;;;;;0.00;0.00;;;;;;;12.42;75.36;97195.59;7348800;19;20011;-60
2023/03/13 04:39:10;;;;;;;0.10;0.10;;;;;;;12.22;75.31;97186.00;7352214;19;20030;-60
2023/03/13 04:41:36;;;;;;;0.00;0.00;;;;;;;12.24;76.43;97189.31;7347960;19;20013;-60
2023/03/13 04:44:01;;;;;;;0.00;0.00;;;;;;;12.16;76.15;97187.34;7347748;19;20385;-60
2023/03/13 04:46:27;;;;;;;0.00;0.00;;;;;;;12.07;76.99;97194.19;7345730;19;20010;-60
2023/03/13 04:48:52;;;;;;;0.00;0.00;;;;;;;12.02;77.09;97185.91;7348726;19;20023;-60
2023/03/13 04:51:17;;;;;;;0.00;0.00;;;;;;;11.94;77.31;97186.56;7351003;19;20014;-60
2023/03/13 04:53:43;;;;;;;0.00;0.00;;;;;;;11.94;77.25;97190.94;7350640;19;20033;-61
2023/03/13 04:56:15;;;;;;;0.00;0.00;;;;;;;11.93;77.28;97202.38;7350171;19;20315;-61
2023/03/13 04:58:40;;;;;;;0.00;0.00;;;;;;;11.88;77.23;97184.47;7352238;19;20039;-61
2023/03/13 05:01:06;;;;;;;0.10;0.10;;;;;;;11.89;77.45;97195.75;7351831;19;20002;-61
2023/03/13 05:03:31;;;;;;;0.10;0.10;;;;;;;11.87;77.67;97176.75;7348155;19;20022;-61
2023/03/13 05:05:57;;;;;;;0.00;0.00;;;;;;;11.70;77.78;97171.09;7349192;19;20031;-61
2023/03/13 05:08:22;;;;;;;0.03;0.03;;;;;;;11.80;77.76;97181.63;7348233;19;20007;-61
2023/03/13 05:10:47;;;;;;;0.10;0.10;;;;;;;11.78;77.67;97182.72;7347089;19;20006;-61
2023/03/13 05:13:13;;;;;;;0.05;0.05;;;;;;;11.78;78.11;97174.88;7349007;19;20014;-61
2023/03/13 05:15:38;;;;;;;0.10;0.10;;;;;;;11.78;78.03;97156.56;7352543;19;20006;-61
2023/03/13 05:18:04;;;;;;;0.00;0.00;;;;;;;11.76;78.00;97158.47;7346390;19;20018;-61
2023/03/13 05:20:29;;;;;;;0.05;0.05;;;;;;;11.75;78.41;97156.81;7350716;19;20021;-61
2023/03/13 05:22:55;;;;;;;0.03;0.03;;;;;;;11.74;78.47;97149.94;7343864;19;20780;-61
2023/03/13 05:25:20;;;;;;;0.10;0.10;;;;;;;11.71;78.39;97156.28;7350250;19;20035;-61
2023/03/13 05:27:46;;;;;;;0.10;0.10;;;;;;;11.72;78.36;97157.94;7346600;19;20015;-60
2023/03/13 05:30:11;;;;;;;0.00;0.00;;;;;;;11.73;77.81;97153.53;7352897;19;20038;-61
2023/03/13 05:32:37;;;;;;;0.08;0.08;;;;;;;11.74;77.91;97139.50;7345623;19;20014;-61
2023/03/13 05:35:03;;;;;;;0.00;0.00;;;;;;;11.75;78.21;97135.91;7348327;19;20630;-61
2023/03/13 05:37:28;;;;;;;0.00;0.00;;;;;;;11.74;77.84;97134.25;7345770;19;20018;-60
2023/03/13 05:39:53;;;;;;;0.00;0.00;;;;;;;11.74;77.91;97139.50;7348730;19;20043;-61
2023/03/13 05:42:19;;;;;;;0.08;0.08;;;;;;;11.73;78.44;97116.94;7348102;19;20006;-60
2023/03/13 05:44:44;;;;;;;0.05;0.05;;;;;;;11.72;77.85;97120.50;7344417;19;20043;-61
2023/03/13 05:47:10;;;;;;;0.00;0.00;;;;;;;11.68;78.18;97125.97;7349855;19;20066;-60
2023/03/13 05:49:35;;;;;;;0.10;0.10;;;;;;;11.66;77.83;97114.84;7344206;19;20117;-61
2023/03/13 05:52:00;;;;;;;0.10;0.10;;;;;;;11.69;78.28;97132.84;7347430;19;20033;-61
2023/03/13 05:54:26;;;;;;;0.00;0.00;;;;;;;11.69;78.29;97132.03;7348733;19;20027;-61
2023/03/13 05:56:51;;;;;;;0.00;0.00;;;;;;;11.68;78.67;97120.75;7347099;19;20082;-61
2023/03/13 05:59:17;;;;;;;0.00;0.00;;;;;;;11.68;78.19;97125.16;7347346;19;20035;-61
2023/03/13 06:01:42;;;;;;;0.00;0.00;;;;;;;11.67;77.72;97113.88;7347647;19;20007;-61
2023/03/13 06:04:07;;;;;;;0.00;0.00;;;;;;;11.68;77.58;97107.69;7343442;19;20491;-61
2023/03/13 06:06:33;;;;;;;0.10;0.10;;;;;;;11.64;78.38;97108.91;7345622;19;20010;-61
2023/03/13 06:08:58;;;;;;;0.00;0.00;;;;;;;11.66;78.05;97106.19;7348866;19;20015;-61
2023/03/13 06:11:23;;;;;;;0.00;0.00;;;;;;;11.61;78.08;97122.25;7347972;19;20052;-61
2023/03/13 06:13:52;;;;;;;0.10;0.10;;;;;;;11.54;78.17;97084.50;7349801;19;20021;-60
2023/03/13 06:16:17;;;;;;;0.08;0.08;;;;;;;11.58;78.21;97095.53;7351249;19;20754;-61
2023/03/13 06:18:43;;;;;;;0.00;0.00;;;;;;;11.66;78.06;97086.09;7347889;19;20015;-61
2023/03/13 06:21:09;;;;;;;0.08;0.08;;;;;;;11.66;78.50;97088.69;7348925;19;20594;-61
2023/03/13 06:23:35;;;;;;;0.00;0.00;;;;;;;11.67;78.44;97087.75;7349825;19;20078;-61
2023/03/13 06:26:01;;;;;;;0.10;0.10;;;;;;;11.67;78.20;97064.22;7343710;19;20082;-61
2023/03/13 06:28:26;;;;;;;0.10;0.10;;;;;;;11.69;78.42;97075.34;7348070;19;20810;-61
2023/03/13 06:30:52;;;;;;;0.00;0.00;;;;;;;11.70;78.73;97061.31;7351411;19;20025;-61
2023/03/13 06:33:17;;;;;;;0.10;0.10;;;;;;;11.72;78.47;97069.06;7345635;19;20026;-61
2023/03/13 06:35:43;;;;;;;0.10;0.10;;;;;;;11.73;78.34;97073.31;7345690;19;20588;-61
2023/03/13 06:38:09;;;;;;;0.10;0.10;;;;;;;11.78;78.46;97078.16;7346371;19;20018;-61
2023/03/13 06:40:35;;;;;;;0.10;0.10;;;;;;;11.76;78.20;97080.91;7345753;19;20010;-61
2023/03/13 06:43:00;;;;;;;0.10;0.10;;;;;;;11.78;78.15;97089.44;7344988;19;20010;-61
2023/03/13 06:45:26;;;;;;;0.00;0.00;;;;;;;11.81;78.26;97083.09;7348790;19;20006;-61
2023/03/13 06:47:51;;;;;;;0.10;0.10;;;;;;;11.78;78.70;97072.94;7352519;19;20523;-61
2023/03/13 06:50:17;;;;;;;0.00;0.00;;;;;;;11.82;78.60;97090.03;7354307;19;20129;-61
2023/03/13 06:52:43;;;;;;;0.00;0.00;;;;;;;11.77;78.55;97081.75;7352308;19;20019;-61
2023/03/13 06:55:09;;;;;;;0.10;0.10;;;;;;;11.87;78.89;97103.56;7355190;19;20018;-61
2023/03/13 06:57:34;;;;;;;0.10;0.10;;;;;;;11.88;78.44;97087.72;7349773;19;20018;-61
2023/03/13 07:00:00;;;;;;;0.00;0.00;;;;;;;11.92;78.74;97106.59;7352389;19;20010;-61
2023/03/13 07:02:25;;;;;;;0.10;0.10;;;;;;;11.92;78.62;97080.47;7357245;19;20010;-61
2023/03/13 07:04:51;;;;;;;0.10;0.10;;;;;;;11.97;78.76;97091.34;7359980;19;20018;-60
2023/03/13 07:07:16;;;;;;;0.10;0.10;;;;;;;11.99;78.65;97094.66;7355266;19;20014;-60
2023/03/13 07:09:41;;;;;;;0.00;0.00;;;;;;;11.97;78.31;97083.50;7359198;19;20049;-61
2023/03/13 07:12:07;;;;;;;0.00;0.00;;;;;;;12.00;78.32;97088.44;7357891;19;20765;-60
2023/03/13 07:14:32;;;;;;;0.00;0.00;;;;;;;12.03;78.08;97088.19;7355021;19;20007;-61
2023/03/13 07:16:58;;;;;;;0.10;0.10;;;;;;;11.94;78.14;97086.38;7358725;19;20068;-60
2023/03/13 07:19:26;;;;;;;0.00;0.00;;;;;;;12.05;78.29;97101.94;7357933;19;20700;-61
2023/03/13 07:21:51;;;;;;;0.00;0.00;;;;;;;12.06;78.53;97108.00;7354750;19;20022;-61
2023/03/13 07:24:17;;;;;;;0.00;0.00;;;;;;;12.08;78.57;97106.94;7356331;19;20782;-61
2023/03/13 07:26:43;;;;;;;0.03;0.03;;;;;;;12.07;78.48;97109.69;7357853;19;20026;-61
2023/03/13 07:29:09;;;;;;;0.10;0.10;;;;;;;12.08;78.52;97100.88;7358594;19;20010;-61
2023/03/13 07:31:34;;;;;;;0.00;0.00;;;;;;;12.08;78.30;97096.47;7355109;19;20570;-61
2023/03/13 07:34:00;;;;;;;0.10;0.10;;;;;;;12.09;78.40;97102.53;7357305;19;20470;-61
2023/03/13 07:36:25;;;;;;;0.10;0.10;;;;;;;12.08;78.38;97106.94;7357179;19;20503;-61
2023/03/13 07:38:51;;;;;;;0.05;0.05;;;;;;;12.10;78.31;97115.47;7352523;19;20496;-61
2023/03/13 07:41:18;;;;;;;0.00;0.00;;;;;;;12.10;78.10;97130.31;7356688;19;20105;-61
2023/03/13 07:43:44;;;;;;;0.10;0.10;;;;;;;12.12;78.06;97134.47;7355626;19;20569;-61
2023/03/13 07:46:12;;;;;;;0.00;0.00;;;;;;;12.12;78.13;97125.81;7356162;19;20014;-61
2023/03/13 07:48:40;;;;;;;0.10;0.10;;;;;;;12.13;78.52;97137.91;7352658;19;20280;-61
2023/03/13 07:51:09;;;;;;;0.00;0.00;;;;;;;12.13;78.47;97124.84;7342524;19;20359;-61
2023/03/13 07:53:34;;;;;;;0.00;0.00;;;;;;;12.14;78.58;97126.50;7357321;19;20592;-58
2023/03/13 07:56:10;;;;;;;0.00;0.00;;;;;;;12.17;78.81;97131.47;7359170;19;20002;-58
2023/03/13 07:58:38;;;;;;;0.10;0.10;;;;;;;12.17;78.74;97127.06;7355458;19;20013;-58
2023/03/13 08:01:08;;;;;;;0.00;0.00;;;;;;;12.20;78.71;97124.16;7357830;19;20043;-58
2023/03/13 08:03:34;;;;;;;0.00;0.00;;;;;;;12.27;78.69;97127.09;7357471;19;20011;-58
2023/03/13 08:06:01;;;;;;;0.08;0.08;;;;;;;12.26;78.95;97121.97;7355253;19;21636;-58
2023/03/13 08:08:27;;;;;;;0.03;0.03;;;;;;;12.30;78.75;97123.38;7356263;19;20003;-58
2023/03/13 08:10:53;;;;;;;0.10;0.10;;;;;;;12.37;79.04;97121.91;7356661;19;20003;-59
2023/03/13 08:13:18;;;;;;;0.08;0.08;;;;;;;12.47;78.82;97120.13;7354393;19;20011;-58
2023/03/13 08:15:44;;;;;;;0.00;0.00;;;;;;;12.47;78.71;97128.00;7359104;19;20017;-57
2023/03/13 08:18:09;;;;;;;0.08;0.08;;;;;;;12.54;78.98;97123.84;7356359;19;20035;-58
2023/03/13 08:20:34;;;;;;;0.10;0.10;;;;;;;12.61;78.59;97127.59;7355832;19;20011;-58
2023/03/13 08:23:00;;;;;;;0.10;0.10;;;;;;;12.65;78.47;97131.59;7355101;19;20010;-59
2023/03/13 08:25:25;;;;;;;0.10;0.10;;;;;;;12.73;78.42;97138.78;7356556;19;20035;-58
2023/03/13 08:27:51;;;;;;;0.00;0.00;;;;;;;12.68;78.24;97123.47;7355560;19;20014;-58
2023/03/13 08:30:16;;;;;;;0.03;0.03;;;;;;;12.78;78.39;97141.00;7356060;19;20025;-58
2023/03/13 08:32:42;;;;;;;0.00;0.00;;;;;;;12.87;78.67;97145.41;7357072;19;20744;-58
2023/03/13 08:35:08;;;;;;;0.08;0.08;;;;;;;12.90;78.51;97135.47;7355102;19;20035;-58
2023/03/13 08:37:33;;;;;;;0.00;0.00;;;;;;;12.97;78.07;97141.00;7356880;19;20261;-58
2023/03/13 08:39:59;;;;;;;0.10;0.10;;;;;;;12.97;77.97;97135.75;7353596;19;20033;-58
2023/03/13 08:42:24;;;;;;;0.00;0.00;;;;;;;13.00;77.76;97130.25;7351653;19;20013;-58
2023/03/13 08:44:49;;;;;;;0.10;0.10;;;;;;;13.03;78.03;97143.09;7353461;19;20010;-57
2023/03/13 08:47:17;;;;;;;0.10;0.10;;;;;;;13.01;77.68;97137.13;7355830;19;20010;-58
2023/03/13 08:49:42;;;;;;;0.03;0.03;;;;;;;13.05;77.66;97151.63;7353347;19;20019;-57
2023/03/13 08:52:08;;;;;;;0.10;0.10;;;;;;;13.06;78.00;97140.16;7354824;19;20524;-58
2023/03/13 08:54:33;;;;;;;0.00;0.00;;;;;;;13.08;77.89;97143.50;7349728;19;20083;-57
2023/03/13 08:56:59;;;;;;;0.05;0.05;;;;;;;13.06;78.19;97139.34;7353492;19;20006;-58
2023/03/13 08:59:25;;;;;;;0.10;0.10;;;;;;;13.13;78.09;97133.44;7355570;19;20022;-58
2023/03/13 09:01:51;;;;;;;0.08;0.08;;;;;;;13.17;77.76;97115.63;7353477;19;20523;-58
2023/03/13 09:04:17;;;;;;;0.00;0.00;;;;;;;13.19;77.30;97130.25;7337862;19;20077;-58
2023/03/13 09:06:43;;;;;;;0.10;0.10;;;;;;;13.18;77.29;97123.38;7356400;19;20747;-57
2023/03/13 09:09:09;;;;;;;0.10;0.10;;;;;;;13.20;77.57;97131.91;7353455;19;20458;-58
2023/03/13 09:11:36;;;;;;;0.10;0.10;;;;;;;13.26;77.90;97162.00;7356516;19;20015;-58
2023/03/13 09:14:02;;;;;;;0.00;0.00;;;;;;;13.30;78.10;97136.34;7354715;19;20033;-58
2023/03/13 09:16:29;;;;;;;0.03;0.03;;;;;;;13.34;77.95;97138.56;7354140;19;20010;-58
2023/03/13 09:18:56;;;;;;;0.10;0.10;;;;;;;13.38;77.53;97139.09;7355885;19;20043;-58
2023/03/13 09:21:24;;;;;;;0.10;0.10;;;;;;;13.40;77.19;97142.41;7355606;19;20044;-58
2023/03/13 09:23:50;;;;;;;0.00;0.00;;;;;;;13.38;77.12;97137.31;7354853;19;20082;-58
2023/03/13 09:26:17;;;;;;;0.10;0.10;;;;;;;13.40;77.37;97147.66;7348842;19;20078;-58
2023/03/13 09:28:43;;;;;;;0.05;0.05;;;;;;;13.41;77.10;97154.53;7354549;19;20019;-58
2023/03/13 09:31:17;;;;;;;0.00;0.00;;;;;;;13.44;77.26;97160.34;7353871;19;20025;-58
2023/03/13 09:33:43;;;;;;;0.03;0.03;;;;;;;13.43;77.17;97170.94;7351916;19;20006;-58
2023/03/13 09:36:10;;;;;;;0.10;0.10;;;;;;;13.44;77.13;97159.53;7349723;19;20069;-59
2023/03/13 09:38:36;;;;;;;0.00;0.00;;;;;;;13.46;77.24;97168.06;7352873;19;20017;-58
2023/03/13 09:41:28;;;;;;;0.10;0.10;;;;;;;13.48;77.25;97166.13;7347528;19;20019;-57
2023/03/13 09:44:16;;;;;;;0.10;0.10;;;;;;;13.48;77.16;97187.09;7352812;19;20010;-58
2023/03/13 09:47:00;;;;;;;0.10;0.10;;;;;;;13.41;77.22;97183.38;7357584;19;20554;-58
2023/03/13 09:49:39;;;;;;;0.00;0.00;;;;;;;13.43;77.21;97178.81;7344162;19;20047;-58
2023/03/13 09:52:26;;;;;;;0.10;0.10;;;;;;;13.43;77.09;97181.44;7351594;19;20431;-58
2023/03/13 09:55:00;;;;;;;0.00;0.00;;;;;;;13.30;77.19;97167.78;7349613;19;20014;-58
2023/03/13 09:57:37;;;;;;;0.10;0.10;;;;;;;13.38;77.34;97186.25;7349105;19;20006;-58
2023/03/13 10:00:15;;;;;;;0.10;0.10;;;;;;;13.41;77.58;97199.91;7355031;19;20048;-58
2023/03/13 10:02:46;;;;;;;0.00;0.00;;;;;;;13.41;77.31;97188.63;7349154;19;20013;-58
2023/03/13 10:05:16;;;;;;;0.10;0.10;;;;;;;13.40;77.29;97194.81;7344092;19;20010;-59
2023/03/13 10:07:42;;;;;;;0.00;0.00;;;;;;;13.42;77.83;97185.84;7354227;19;20014;-58
2023/03/13 10:10:24;;;;;;;0.10;0.10;;;;;;;13.49;77.71;97196.63;7348875;19;20017;-58
2023/03/13 10:12:56;;;;;;;0.10;0.10;;;;;;;13.50;77.47;97191.22;7349256;19;20014;-57
2023/03/13 10:15:52;;;;;;;0.08;0.08;;;;;;;13.58;77.82;97208.88;7352995;19;20604;-58
2023/03/13 10:18:23;;;;;;;0.00;0.00;;;;;;;13.59;77.32;97188.75;7250449;19;2004453;-58
2023/03/13 10:20:57;;;;;;;0.10;0.10;;;;;;;13.48;77.11;97173.97;7347680;19;20030;-58
2023/03/13 10:23:32;;;;;;;0.10;0.10;;;;;;;13.62;77.63;97193.69;7343289;19;20041;-58
2023/03/13 10:25:57;;;;;;;0.10;0.10;;;;;;;13.60;77.28;97182.53;7352779;19;20010;-58
2023/03/13 10:28:24;;;;;;;0.05;0.05;;;;;;;13.64;76.93;97203.09;7356587;19;20872;-58
2023/03/13 10:30:53;;;;;;;0.00;0.00;;;;;;;13.64;77.33;97197.84;7353055;19;20013;-58
2023/03/13 10:33:23;;;;;;;0.10;0.10;;;;;;;13.67;77.38;97197.56;7354341;19;20015;-58
2023/03/13 10:36:06;;;;;;;0.10;0.10;;;;;;;13.69;77.64;97200.88;7346767;19;20039;-58
2023/03/13 10:38:34;;;;;;;0.00;0.00;;;;;;;13.69;77.14;97198.25;7356063;19;20006;-58
2023/03/13 10:41:09;;;;;;;0.08;0.08;;;;;;;13.74;77.56;97203.91;7350085;19;20017;-57
2023/03/13 10:43:34;;;;;;;0.10;0.10;;;;;;;13.77;77.71;97198.38;7356337;19;20018;-57
2023/03/13 10:46:00;;;;;;;0.10;0.10;;;;;;;13.64;77.07;97181.28;7351735;19;20027;-58
2023/03/13 10:48:29;;;;;;;0.10;0.10;;;;;;;13.92;76.94;97203.19;7355847;19;20014;-58
2023/03/13 10:50:58;;;;;;;0.10;0.10;;;;;;;13.84;76.88;97192.56;7352403;19;20014;-58
2023/03/13 10:53:35;;;;;;;0.10;0.10;;;;;;;13.97;76.98;97208.81;7354257;19;20035;-58
2023/03/13 10:56:12;;;;;;;0.05;0.05;;;;;;;14.00;76.97;97206.75;7354634;19;20017;-58
2023/03/13 10:58:48;;;;;;;0.10;0.10;;;;;;;14.03;76.67;97213.50;7349121;19;20018;-58
2023/03/13 11:01:28;;;;;;;0.10;0.10;;;;;;;14.05;76.95;97214.22;7353690;19;20035;-59
2023/03/13 11:03:55;;;;;;;0.10;0.10;;;;;;;14.04;76.76;97215.19;7336563;19;20006;-58
2023/03/13 11:06:24;;;;;;;0.10;0.10;;;;;;;14.05;76.68;97210.75;7351150;19;20475;-58
2023/03/13 11:08:58;;;;;;;0.00;0.00;;;;;;;14.11;77.27;97213.63;7355423;19;20011;-58
2023/03/13 11:11:29;;;;;;;0.10;0.10;;;;;;;14.12;76.58;97209.22;7353331;19;20015;-58
2023/03/13 11:14:05;;;;;;;0.10;0.10;;;;;;;14.13;76.89;97209.06;7356143;19;20002;-58
2023/03/13 11:16:31;;;;;;;0.10;0.10;;;;;;;14.16;76.82;97219.28;7352333;19;20007;-58
2023/03/13 11:19:11;;;;;;;0.10;0.10;;;;;;;14.23;76.46;97222.16;7352890;19;25256;-58
2023/03/13 11:21:58;;;;;;;0.00;0.00;;;;;;;14.17;76.72;97210.44;7351192;19;20021;-58
2023/03/13 11:24:28;;;;;;;0.10;0.10;;;;;;;14.27;76.58;97226.16;7355303;19;20705;-57
2023/03/13 11:27:14;;;;;;;0.10;0.10;;;;;;;14.29;76.19;97221.56;7355161;19;20018;-57
2023/03/13 11:29:42;;;;;;;0.10;0.10;;;;;;;14.27;76.30;97239.28;7352052;19;20010;-59
2023/03/13 11:32:30;;;;;;;0.10;0.10;;;;;;;14.33;75.78;97237.88;7355184;19;20018;-58
2023/03/13 11:35:00;;;;;;;0.10;0.10;;;;;;;14.19;75.54;97224.25;7358940;19;20011;-58
2023/03/13 11:37:30;;;;;;;0.10;0.10;;;;;;;14.23;76.22;97230.84;7359159;19;20010;-58